Time;durP1;ratioP1;P1;durP2;ratioP2;P2;SDS_P1;SDS_P2;PMS_P1;PMS_P2;Temp;Humidity;BMP_temperature;BMP_pressure;BME280_temperature;BME280_humidity;BME280_pressure;Samples;Min_cycle;Max_cycle;Signal;HPM_P1;HPM_P2
2022/03/28 00:00:36;;;;;;;0.17;0.17;;;10.40;97.10;;;;;;5012554;28;20084;-67
2022/03/28 00:03:02;;;;;;;0.10;0.10;;;10.40;96.80;;;;;;5011913;28;20527;-67
2022/03/28 00:05:28;;;;;;;0.10;0.10;;;10.40;96.40;;;;;;5012393;28;20107;-67
2022/03/28 00:07:54;;;;;;;0.10;0.10;;;10.40;96.80;;;;;;5007970;28;20511;-66
2022/03/28 00:10:19;;;;;;;0.10;0.10;;;10.30;97.50;;;;;;5009327;28;20081;-67
2022/03/28 00:12:45;;;;;;;0.10;0.10;;;10.40;97.80;;;;;;5003778;28;20538;-66
2022/03/28 00:15:11;;;;;;;0.10;0.10;;;10.40;97.90;;;;;;5020186;28;20109;-67
2022/03/28 00:17:37;;;;;;;0.20;0.20;;;10.30;98.10;;;;;;4992785;28;20491;-66
2022/03/28 00:20:04;;;;;;;0.10;0.10;;;10.30;98.90;;;;;;4992760;28;20027;-67
2022/03/28 00:22:30;;;;;;;0.00;0.00;;;10.20;99.10;;;;;;4996425;28;20730;-67
2022/03/28 00:24:56;;;;;;;0.10;0.10;;;10.20;99.60;;;;;;5005275;28;20030;-66
2022/03/28 00:27:21;;;;;;;1.58;1.50;;;10.20;99.70;;;;;;5011997;28;20392;-67
2022/03/28 00:29:47;;;;;;;0.15;0.15;;;10.10;99.80;;;;;;5012113;28;20058;-67
2022/03/28 00:32:13;;;;;;;0.10;0.10;;;10.10;99.70;;;;;;5027041;28;20053;-67
2022/03/28 00:34:39;;;;;;;0.10;0.10;;;10.00;99.90;;;;;;5005277;28;20493;-66
2022/03/28 00:37:06;;;;;;;0.10;0.10;;;9.90;99.90;;;;;;5010996;28;20018;-67
2022/03/28 00:39:31;;;;;;;0.10;0.10;;;9.90;99.90;;;;;;5007354;28;20080;-66
2022/03/28 00:41:57;;;;;;;0.10;0.10;;;10.00;99.90;;;;;;5009083;28;20438;-67
2022/03/28 00:44:23;;;;;;;0.20;0.20;;;10.00;99.90;;;;;;5005530;28;20034;-66
2022/03/28 00:46:48;;;;;;;0.65;0.65;;;9.90;99.90;;;;;;4992297;28;20069;-66
2022/03/28 00:49:16;;;;;;;0.10;0.10;;;9.90;99.90;;;;;;4994673;28;20428;-67
2022/03/28 00:51:42;;;;;;;0.10;0.10;;;9.80;99.90;;;;;;5011190;28;20092;-67
2022/03/28 00:54:08;;;;;;;0.10;0.10;;;9.80;99.90;;;;;;5010817;28;20041;-66
2022/03/28 00:56:34;;;;;;;0.10;0.10;;;9.80;99.90;;;;;;5010369;28;20411;-67
2022/03/28 00:58:59;;;;;;;0.10;0.10;;;9.70;99.90;;;;;;5011430;28;20066;-68
2022/03/28 01:01:28;;;;;;;0.10;0.10;;;9.70;99.90;;;;;;5001027;28;20503;-66
2022/03/28 01:03:54;;;;;;;0.10;0.10;;;9.70;99.90;;;;;;5011005;28;20029;-67
2022/03/28 01:06:20;;;;;;;0.10;0.10;;;9.60;99.90;;;;;;5009391;28;20202;-66
2022/03/28 01:08:46;;;;;;;0.10;0.10;;;9.60;99.90;;;;;;4991580;28;20042;-67
2022/03/28 01:11:12;;;;;;;0.10;0.10;;;9.40;99.90;;;;;;5001021;28;20033;-67
2022/03/28 01:13:40;;;;;;;0.10;0.10;;;9.40;99.90;;;;;;5009158;28;20088;-67
2022/03/28 01:16:06;;;;;;;0.52;0.52;;;9.40;99.90;;;;;;5003420;28;20029;-66
2022/03/28 01:18:31;;;;;;;0.10;0.10;;;9.40;99.90;;;;;;5006408;28;20537;-66
2022/03/28 01:20:58;;;;;;;0.10;0.10;;;9.40;99.90;;;;;;5003636;28;20026;-67
2022/03/28 01:23:25;;;;;;;0.10;0.10;;;9.40;99.90;;;;;;5008944;28;20109;-67
2022/03/28 01:25:51;;;;;;;1.27;1.27;;;9.40;99.90;;;;;;5000609;28;20025;-67
2022/03/28 01:28:21;;;;;;;0.15;0.15;;;9.30;99.90;;;;;;5002818;28;20030;-68
2022/03/28 01:30:47;;;;;;;0.10;0.10;;;9.30;99.90;;;;;;5005480;28;20026;-67
2022/03/28 01:33:14;;;;;;;0.10;0.10;;;9.40;99.90;;;;;;5001979;28;20134;-67
2022/03/28 01:35:41;;;;;;;0.13;0.13;;;9.30;99.90;;;;;;5003877;28;20087;-67
2022/03/28 01:38:12;;;;;;;0.85;0.85;;;9.40;99.90;;;;;;5009211;28;20170;-67
2022/03/28 01:40:41;;;;;;;0.10;0.10;;;9.40;99.90;;;;;;5005607;28;20030;-67
2022/03/28 01:43:06;;;;;;;2.85;2.60;;;9.40;99.90;;;;;;5004256;28;20381;-67
2022/03/28 01:45:32;;;;;;;3.35;2.75;;;9.40;99.90;;;;;;5004425;28;20049;-65
2022/03/28 01:47:58;;;;;;;0.28;0.28;;;9.40;99.90;;;;;;5004613;28;20030;-67
2022/03/28 01:50:25;;;;;;;0.10;0.10;;;9.50;99.90;;;;;;5009355;28;20030;-67
2022/03/28 01:52:51;;;;;;;0.20;0.20;;;9.50;99.90;;;;;;5004829;28;20108;-67
2022/03/28 01:55:17;;;;;;;0.10;0.10;;;9.40;99.90;;;;;;5004017;28;20508;-67
2022/03/28 01:57:44;;;;;;;0.10;0.10;;;9.40;99.90;;;;;;5003791;28;20030;-66
2022/03/28 02:00:18;;;;;;;0.10;0.10;;;9.40;99.90;;;;;;5006759;28;20043;-67
2022/03/28 02:02:46;;;;;;;0.10;0.10;;;9.30;99.90;;;;;;5002882;28;20026;-66
2022/03/28 02:05:13;;;;;;;0.20;0.20;;;9.40;99.90;;;;;;4999172;28;20037;-67
2022/03/28 02:07:40;;;;;;;0.10;0.10;;;9.40;99.90;;;;;;5004410;28;20103;-66
2022/03/28 02:10:09;;;;;;;0.28;0.28;;;9.30;99.90;;;;;;5005029;28;20028;-66
2022/03/28 02:12:36;;;;;;;0.10;0.10;;;9.30;99.90;;;;;;5007334;28;20030;-66
2022/03/28 02:15:06;;;;;;;0.90;0.90;;;9.20;99.90;;;;;;5005237;28;20101;-66
2022/03/28 02:17:32;;;;;;;0.10;0.10;;;9.10;99.90;;;;;;5002873;28;20034;-67
2022/03/28 02:19:58;;;;;;;0.10;0.10;;;9.00;99.90;;;;;;5002669;28;20225;-67
2022/03/28 02:22:24;;;;;;;0.10;0.10;;;9.00;99.90;;;;;;5009736;28;20535;-66
2022/03/28 02:24:50;;;;;;;0.15;0.15;;;8.90;99.90;;;;;;5001331;28;20030;-66
2022/03/28 02:27:16;;;;;;;0.10;0.10;;;9.00;99.90;;;;;;5005825;28;20026;-67
2022/03/28 02:29:41;;;;;;;0.10;0.10;;;9.00;99.90;;;;;;5007968;28;20387;-66
2022/03/28 02:32:07;;;;;;;0.10;0.10;;;9.10;99.90;;;;;;4999720;28;20131;-67
2022/03/28 02:34:33;;;;;;;1.13;1.02;;;9.10;99.90;;;;;;5006471;28;20033;-67
2022/03/28 02:36:59;;;;;;;0.30;0.30;;;9.00;99.90;;;;;;5009689;28;20022;-67
2022/03/28 02:39:25;;;;;;;0.10;0.10;;;8.90;99.90;;;;;;5006914;28;20064;-67
2022/03/28 02:41:51;;;;;;;0.25;0.25;;;8.90;99.90;;;;;;5001279;28;20061;-67
2022/03/28 02:44:17;;;;;;;0.10;0.10;;;8.90;99.90;;;;;;5006165;28;20025;-66
2022/03/28 02:46:44;;;;;;;0.10;0.10;;;8.90;99.90;;;;;;5001555;28;20034;-66
2022/03/28 02:49:10;;;;;;;0.10;0.10;;;8.80;99.90;;;;;;5006845;28;20041;-66
2022/03/28 02:51:36;;;;;;;0.10;0.10;;;8.70;99.90;;;;;;5002595;28;20057;-66
2022/03/28 02:54:02;;;;;;;0.10;0.10;;;8.70;99.90;;;;;;5006705;28;20030;-66
2022/03/28 02:56:27;;;;;;;0.10;0.10;;;8.60;99.90;;;;;;5003449;28;20055;-66
2022/03/28 02:58:54;;;;;;;0.45;0.45;;;8.60;99.90;;;;;;5003834;28;20066;-65
2022/03/28 03:01:20;;;;;;;0.10;0.10;;;8.50;99.90;;;;;;5007862;28;20157;-65
2022/03/28 03:03:45;;;;;;;0.10;0.10;;;8.50;99.90;;;;;;5007223;28;20025;-66
2022/03/28 03:06:11;;;;;;;0.10;0.10;;;8.50;99.90;;;;;;5012068;28;20034;-67
2022/03/28 03:08:36;;;;;;;0.20;0.20;;;8.40;99.90;;;;;;5003819;28;20499;-67
2022/03/28 03:11:02;;;;;;;0.10;0.10;;;8.40;99.90;;;;;;5002627;28;20064;-67
2022/03/28 03:13:28;;;;;;;0.00;0.00;;;8.50;99.90;;;;;;5006271;28;20026;-67
2022/03/28 03:15:53;;;;;;;0.32;0.32;;;8.40;99.90;;;;;;5007109;28;20526;-66
2022/03/28 03:18:19;;;;;;;0.20;0.20;;;8.40;99.90;;;;;;5001202;28;20522;-66
2022/03/28 03:20:45;;;;;;;0.10;0.10;;;8.30;99.90;;;;;;5011984;28;20058;-66
2022/03/28 03:23:10;;;;;;;0.75;0.75;;;8.30;99.90;;;;;;5005717;28;20034;-66
2022/03/28 03:25:36;;;;;;;0.47;0.47;;;8.20;99.90;;;;;;5005491;28;20061;-66
2022/03/28 03:28:02;;;;;;;0.35;0.35;;;8.20;99.90;;;;;;5004918;28;20036;-66
2022/03/28 03:30:28;;;;;;;0.10;0.10;;;8.20;99.90;;;;;;5009703;28;20131;-66
2022/03/28 03:32:53;;;;;;;3.30;3.10;;;8.20;99.90;;;;;;5009397;28;20541;-67
2022/03/28 03:35:19;;;;;;;0.10;0.10;;;8.20;99.90;;;;;;5005014;28;20026;-66
2022/03/28 03:37:45;;;;;;;0.20;0.20;;;8.10;99.90;;;;;;5004144;28;20041;-67
2022/03/28 03:40:12;;;;;;;2.30;2.20;;;8.10;99.90;;;;;;5007699;28;20095;-67
2022/03/28 03:42:38;;;;;;;0.10;0.10;;;8.10;99.90;;;;;;5004846;28;20107;-67
2022/03/28 03:45:05;;;;;;;0.10;0.10;;;8.10;99.90;;;;;;5008591;28;20438;-66
2022/03/28 03:47:31;;;;;;;0.10;0.10;;;8.00;99.90;;;;;;5009717;28;20392;-66
2022/03/28 03:49:57;;;;;;;0.10;0.10;;;7.90;99.90;;;;;;5008189;28;20025;-67
2022/03/28 03:52:22;;;;;;;0.10;0.10;;;7.80;99.90;;;;;;5000381;28;20022;-67
2022/03/28 03:54:48;;;;;;;0.10;0.10;;;7.80;99.90;;;;;;5002607;28;20085;-66
2022/03/28 03:57:14;;;;;;;0.10;0.10;;;7.80;99.90;;;;;;5010448;28;20484;-67
2022/03/28 03:59:40;;;;;;;0.10;0.10;;;7.80;99.90;;;;;;5002110;28;20034;-66
2022/03/28 04:02:05;;;;;;;0.10;0.10;;;7.80;99.90;;;;;;5007203;28;20112;-66
2022/03/28 04:04:31;;;;;;;0.10;0.10;;;7.80;99.90;;;;;;5008233;28;20108;-66
2022/03/28 04:06:56;;;;;;;0.10;0.10;;;7.70;99.90;;;;;;5009528;28;20034;-67
2022/03/28 04:09:22;;;;;;;0.30;0.30;;;7.70;99.90;;;;;;5006192;28;20101;-67
2022/03/28 04:11:48;;;;;;;0.20;0.20;;;7.80;99.90;;;;;;5007568;28;20046;-67
2022/03/28 04:14:14;;;;;;;0.05;0.05;;;7.70;99.90;;;;;;5007496;28;20030;-66
2022/03/28 04:16:40;;;;;;;0.10;0.10;;;7.70;99.90;;;;;;5006745;28;20468;-66
2022/03/28 04:19:05;;;;;;;0.20;0.20;;;7.60;99.90;;;;;;5006651;28;20040;-66
2022/03/28 04:21:31;;;;;;;0.40;0.38;;;7.60;99.90;;;;;;5006029;28;20468;-66
2022/03/28 04:23:57;;;;;;;0.73;0.73;;;7.60;99.90;;;;;;5003902;28;20034;-66
2022/03/28 04:26:22;;;;;;;0.10;0.10;;;7.60;99.90;;;;;;5007309;28;20029;-66
2022/03/28 04:28:48;;;;;;;0.10;0.10;;;7.50;99.90;;;;;;5006561;28;20240;-67
2022/03/28 04:31:15;;;;;;;0.20;0.20;;;7.50;99.90;;;;;;4999973;28;20125;-67
2022/03/28 04:33:41;;;;;;;0.20;0.20;;;7.60;99.90;;;;;;5004242;28;20021;-66
2022/03/28 04:36:06;;;;;;;0.20;0.20;;;7.50;99.90;;;;;;5003944;28;20033;-66
2022/03/28 04:38:32;;;;;;;0.25;0.25;;;7.50;99.90;;;;;;5006936;28;20036;-66
2022/03/28 04:40:57;;;;;;;0.10;0.10;;;7.50;99.90;;;;;;5006597;28;20737;-66
2022/03/28 04:43:23;;;;;;;0.10;0.10;;;7.50;99.90;;;;;;5001981;28;20050;-67
2022/03/28 04:45:49;;;;;;;0.10;0.10;;;7.50;99.90;;;;;;5011547;28;20041;-66
2022/03/28 04:48:14;;;;;;;0.15;0.15;;;7.40;99.90;;;;;;5011423;28;20387;-67
2022/03/28 04:50:40;;;;;;;0.10;0.10;;;7.40;99.90;;;;;;5011643;28;20538;-67
2022/03/28 04:53:06;;;;;;;0.10;0.10;;;7.40;99.90;;;;;;5001987;28;20446;-67
2022/03/28 04:55:32;;;;;;;0.10;0.10;;;7.40;99.90;;;;;;5004572;28;20440;-66
2022/03/28 04:57:58;;;;;;;0.20;0.20;;;7.40;99.90;;;;;;5024873;23;20050;-74
2022/03/28 05:00:24;;;;;;;0.10;0.10;;;7.40;99.90;;;;;;5009615;28;20030;-73
2022/03/28 05:02:50;;;;;;;0.10;0.10;;;7.30;99.90;;;;;;5010415;28;20021;-73
2022/03/28 05:05:15;;;;;;;3.47;2.60;;;7.30;99.90;;;;;;5011579;28;20101;-74
2022/03/28 05:07:41;;;;;;;0.43;0.43;;;7.30;99.90;;;;;;5009008;28;20049;-73
2022/03/28 05:10:08;;;;;;;0.10;0.10;;;7.40;99.90;;;;;;4992479;28;20140;-74
2022/03/28 05:12:34;;;;;;;0.30;0.30;;;7.30;99.90;;;;;;5017108;28;20034;-74
2022/03/28 05:15:01;;;;;;;0.80;0.80;;;7.30;99.90;;;;;;5017010;28;20033;-74
2022/03/28 05:17:30;;;;;;;0.20;0.20;;;7.30;99.90;;;;;;5003602;28;20030;-76
2022/03/28 05:19:56;;;;;;;0.10;0.10;;;7.40;99.90;;;;;;5007850;28;20037;-76
2022/03/28 05:22:23;;;;;;;0.10;0.10;;;7.40;99.90;;;;;;5016100;28;20026;-75
2022/03/28 05:24:50;;;;;;;0.40;0.40;;;7.40;99.90;;;;;;5009178;28;20109;-75
2022/03/28 05:27:16;;;;;;;0.10;0.10;;;7.40;99.90;;;;;;5011941;28;20552;-77
2022/03/28 05:29:42;;;;;;;2.53;2.38;;;7.40;99.90;;;;;;5018584;28;20121;-75
2022/03/28 05:32:08;;;;;;;0.10;0.10;;;7.40;99.90;;;;;;5002554;28;20132;-74
2022/03/28 05:34:34;;;;;;;0.80;0.80;;;7.40;99.90;;;;;;5022206;28;20018;-74
2022/03/28 05:39:36;;;;;;;0.20;0.20;;;7.30;99.90;;;;;;5575580;22;20045;-72
2022/03/28 05:42:03;;;;;;;0.43;0.43;;;7.30;99.90;;;;;;5046365;28;20048;-71
2022/03/28 05:44:29;;;;;;;0.10;0.10;;;7.30;99.90;;;;;;5049989;28;20516;-70
2022/03/28 05:46:55;;;;;;;0.10;0.10;;;7.30;99.90;;;;;;5048997;28;20091;-71
2022/03/28 05:49:24;;;;;;;0.88;0.88;;;7.20;99.90;;;;;;5035427;28;20029;-74
2022/03/28 05:51:50;;;;;;;0.20;0.20;;;7.30;99.90;;;;;;5025333;28;20430;-74
2022/03/28 05:54:17;;;;;;;1.13;1.13;;;7.50;99.90;;;;;;5024638;28;20022;-74
2022/03/28 05:56:43;;;;;;;0.10;0.10;;;7.40;99.90;;;;;;5041878;22;20044;-78
2022/03/28 05:59:09;;;;;;;0.10;0.10;;;7.50;99.90;;;;;;5007012;28;20125;-77
2022/03/28 06:01:35;;;;;;;0.10;0.10;;;7.50;99.90;;;;;;5010156;28;20112;-77
2022/03/28 06:04:02;;;;;;;0.10;0.10;;;7.50;99.90;;;;;;5009514;28;20037;-78
2022/03/28 06:06:28;;;;;;;0.15;0.15;;;7.50;99.90;;;;;;5003500;28;20483;-79
2022/03/28 06:08:53;;;;;;;6.65;1.23;;;7.50;99.90;;;;;;5005690;28;20060;-77
2022/03/28 06:11:20;;;;;;;0.10;0.10;;;7.50;99.90;;;;;;5009577;28;20386;-77
2022/03/28 06:13:46;;;;;;;0.10;0.10;;;7.50;99.90;;;;;;5010158;28;20030;-77
2022/03/28 06:16:12;;;;;;;0.63;0.63;;;7.50;99.90;;;;;;4994991;28;20018;-77
2022/03/28 06:18:38;;;;;;;0.10;0.10;;;7.60;99.90;;;;;;4990960;28;20027;-76
2022/03/28 06:21:03;;;;;;;0.10;0.10;;;7.70;99.90;;;;;;5007769;28;20499;-78
2022/03/28 06:23:29;;;;;;;0.10;0.10;;;7.70;99.90;;;;;;5005217;28;20149;-77
2022/03/28 06:25:55;;;;;;;0.35;0.35;;;7.70;99.90;;;;;;4991610;28;20022;-76
2022/03/28 06:28:21;;;;;;;0.90;0.90;;;7.70;99.90;;;;;;5006789;28;20050;-77
2022/03/28 06:30:46;;;;;;;0.10;0.10;;;7.80;99.90;;;;;;5001995;28;20537;-77
2022/03/28 06:33:12;;;;;;;0.65;0.65;;;7.90;99.90;;;;;;4991669;28;20084;-77
2022/03/28 06:35:40;;;;;;;0.10;0.10;;;7.90;99.90;;;;;;5002236;28;20107;-77
2022/03/28 06:38:06;;;;;;;0.10;0.10;;;8.10;99.90;;;;;;5009810;28;20025;-79
2022/03/28 06:40:32;;;;;;;24.95;1.85;;;8.00;99.90;;;;;;5006376;28;20056;-78
2022/03/28 06:42:58;;;;;;;0.10;0.10;;;8.10;99.90;;;;;;5010531;28;20030;-78
2022/03/28 06:45:24;;;;;;;0.10;0.10;;;8.50;99.90;;;;;;5009856;28;20672;-78
2022/03/28 06:47:53;;;;;;;0.10;0.10;;;8.30;99.90;;;;;;4998364;28;20049;-78
2022/03/28 06:50:24;;;;;;;0.30;0.30;;;8.30;99.90;;;;;;5007368;28;20023;-78
2022/03/28 06:52:50;;;;;;;0.30;0.30;;;8.40;99.90;;;;;;5009167;28;20026;-78
2022/03/28 06:55:17;;;;;;;0.10;0.10;;;8.60;99.90;;;;;;5011127;28;20026;-78
2022/03/28 06:57:42;;;;;;;0.20;0.20;;;8.80;99.90;;;;;;5007288;28;20034;-78
2022/03/28 07:00:12;;;;;;;0.20;0.20;;;8.90;99.90;;;;;;5011395;28;20834;-78
2022/03/28 07:02:38;;;;;;;0.10;0.10;;;9.00;99.90;;;;;;5009362;28;20034;-78
2022/03/28 07:05:08;;;;;;;0.63;0.63;;;9.20;99.90;;;;;;5010624;28;20026;-77
2022/03/28 07:07:47;;;;;;;0.10;0.10;;;9.20;99.90;;;;;;5011512;28;20036;-77
2022/03/28 07:10:19;;;;;;;1.30;1.30;;;9.30;99.90;;;;;;5002071;28;20029;-77
2022/03/28 07:12:45;;;;;;;0.10;0.10;;;9.40;99.90;;;;;;5009587;28;20041;-78
2022/03/28 07:15:12;;;;;;;0.30;0.30;;;9.40;99.90;;;;;;5014393;28;20029;-78
2022/03/28 07:17:45;;;;;;;0.20;0.20;;;9.50;99.90;;;;;;5007750;28;20026;-77
2022/03/28 07:20:11;;;;;;;0.20;0.20;;;9.60;99.90;;;;;;5014925;28;20461;-76
2022/03/28 07:22:36;;;;;;;0.10;0.10;;;9.60;99.90;;;;;;5012305;28;20046;-77
2022/03/28 07:25:02;;;;;;;0.10;0.10;;;9.70;99.90;;;;;;5012989;28;20030;-78
2022/03/28 07:27:28;;;;;;;0.82;0.82;;;9.80;99.90;;;;;;5023200;28;20026;-77
2022/03/28 07:29:54;;;;;;;0.10;0.10;;;10.00;99.90;;;;;;5008476;28;20038;-77
2022/03/28 07:32:19;;;;;;;0.10;0.10;;;10.00;99.90;;;;;;5012327;28;20060;-76
2022/03/28 07:34:46;;;;;;;0.20;0.20;;;10.10;99.90;;;;;;5016153;28;20118;-78
2022/03/28 07:37:13;;;;;;;0.10;0.10;;;10.30;99.90;;;;;;5008926;28;20022;-78
2022/03/28 07:39:40;;;;;;;1.55;1.50;;;10.40;99.90;;;;;;5012750;28;20066;-78
2022/03/28 07:42:11;;;;;;;0.10;0.10;;;10.50;99.90;;;;;;5013807;28;20098;-78
2022/03/28 07:44:37;;;;;;;0.10;0.10;;;10.60;99.90;;;;;;5011509;28;20026;-78
2022/03/28 07:47:08;;;;;;;0.73;0.73;;;10.70;99.80;;;;;;5010688;28;20029;-78
2022/03/28 07:49:35;;;;;;;0.30;0.30;;;10.80;98.80;;;;;;5007703;28;20102;-79
2022/03/28 07:52:01;;;;;;;5.53;3.28;;;10.90;97.30;;;;;;5008984;28;20024;-77
2022/03/28 07:54:28;;;;;;;0.10;0.10;;;11.00;97.30;;;;;;5011757;28;20033;-78
2022/03/28 07:56:54;;;;;;;0.10;0.10;;;11.10;96.60;;;;;;5005257;28;20021;-77
2022/03/28 07:59:21;;;;;;;0.17;0.17;;;11.10;96.10;;;;;;5011224;28;20041;-79
2022/03/28 08:01:46;;;;;;;0.10;0.10;;;11.20;96.30;;;;;;5010927;28;20029;-77
2022/03/28 08:04:12;;;;;;;0.57;0.57;;;11.40;95.50;;;;;;5010576;28;20106;-78
2022/03/28 08:06:38;;;;;;;2.38;2.28;;;11.50;95.10;;;;;;5009874;28;20033;-79
2022/03/28 08:09:04;;;;;;;0.10;0.10;;;11.50;94.60;;;;;;5014905;28;20570;-78
2022/03/28 08:11:30;;;;;;;0.10;0.10;;;11.60;94.40;;;;;;5010465;28;20034;-78
2022/03/28 08:13:56;;;;;;;0.20;0.20;;;11.60;94.00;;;;;;5013998;28;20061;-77
2022/03/28 08:16:22;;;;;;;0.10;0.10;;;11.90;93.80;;;;;;5012776;28;20374;-76
2022/03/28 08:18:47;;;;;;;0.47;0.47;;;11.70;93.70;;;;;;5015994;28;20482;-78
2022/03/28 08:21:13;;;;;;;8.88;1.90;;;11.90;93.50;;;;;;5025511;28;20116;-77
2022/03/28 08:23:39;;;;;;;0.10;0.10;;;12.10;92.90;;;;;;5012164;28;20034;-77
2022/03/28 08:26:05;;;;;;;0.55;0.55;;;12.10;92.20;;;;;;5013823;28;20061;-79
2022/03/28 08:28:32;;;;;;;0.50;0.50;;;12.30;92.00;;;;;;5010689;28;20036;-78
2022/03/28 08:30:57;;;;;;;0.10;0.10;;;12.50;91.50;;;;;;5010576;28;20040;-81
2022/03/28 08:33:23;;;;;;;0.47;0.47;;;12.60;91.00;;;;;;5009635;28;20022;-80
2022/03/28 08:35:49;;;;;;;1.58;1.48;;;12.60;90.70;;;;;;5009742;28;20030;-78
2022/03/28 08:38:15;;;;;;;0.10;0.10;;;12.80;90.80;;;;;;5009820;28;20442;-78
2022/03/28 08:40:42;;;;;;;0.10;0.10;;;13.00;90.10;;;;;;5009164;28;20048;-78
2022/03/28 08:43:08;;;;;;;0.38;0.38;;;13.20;89.00;;;;;;5010693;28;20038;-78
2022/03/28 08:45:38;;;;;;;0.65;0.65;;;13.30;87.60;;;;;;5014246;28;20026;-80
2022/03/28 08:48:06;;;;;;;0.10;0.10;;;13.40;86.50;;;;;;5011880;28;20103;-78
2022/03/28 08:50:33;;;;;;;0.82;0.82;;;13.60;85.80;;;;;;5009421;28;20026;-79
2022/03/28 08:52:58;;;;;;;0.10;0.10;;;13.70;85.10;;;;;;5019413;28;20064;-78
2022/03/28 08:55:24;;;;;;;0.10;0.10;;;13.70;82.90;;;;;;5018941;28;20083;-78
2022/03/28 08:57:50;;;;;;;1.80;1.70;;;13.80;80.80;;;;;;5016897;28;20065;-79
2022/03/28 09:00:16;;;;;;;0.10;0.10;;;13.90;80.30;;;;;;5009701;28;20041;-79
2022/03/28 09:02:45;;;;;;;0.10;0.10;;;14.10;79.50;;;;;;5025612;28;20047;-79
2022/03/28 09:05:27;;;;;;;0.82;0.82;;;14.10;78.20;;;;;;5021254;28;20621;-79
2022/03/28 09:07:55;;;;;;;0.47;0.47;;;14.20;76.10;;;;;;5015484;28;20041;-83
2022/03/28 09:10:21;;;;;;;0.40;0.40;;;14.40;74.10;;;;;;5020547;28;20025;-78
2022/03/28 09:13:11;;;;;;;0.17;0.17;;;14.50;72.40;;;;;;5018382;28;20036;-79
2022/03/28 09:15:44;;;;;;;0.20;0.20;;;14.50;73.00;;;;;;5012734;28;20030;-80
2022/03/28 09:18:22;;;;;;;7.18;3.80;;;14.70;71.10;;;;;;5018980;28;20036;-79
2022/03/28 09:20:55;;;;;;;0.20;0.20;;;14.90;69.00;;;;;;5026873;28;20033;-82
2022/03/28 09:23:32;;;;;;;0.17;0.17;;;15.00;67.00;;;;;;5026767;28;20093;-79
2022/03/28 09:25:58;;;;;;;0.20;0.20;;;15.10;67.90;;;;;;5018447;28;20026;-78
2022/03/28 09:28:37;;;;;;;0.75;0.75;;;15.20;67.10;;;;;;5016117;28;20037;-79
2022/03/28 09:31:44;;;;;;;0.10;0.10;;;15.30;66.10;;;;;;5022879;28;20482;-78
2022/03/28 09:34:15;;;;;;;0.30;0.30;;;15.40;65.00;;;;;;5005453;28;20541;-79
2022/03/28 09:36:51;;;;;;;0.10;0.10;;;15.90;63.50;;;;;;5012699;28;20896;-76
2022/03/28 09:39:26;;;;;;;0.10;0.10;;;15.80;63.40;;;;;;5016121;28;20045;-76
2022/03/28 09:42:04;;;;;;;5.07;1.85;;;15.90;63.40;;;;;;5012801;28;20030;-77
2022/03/28 09:44:53;;;;;;;1.65;1.55;;;16.00;61.90;;;;;;5009825;28;20029;-76
2022/03/28 09:47:24;;;;;;;0.20;0.20;;;16.10;61.10;;;;;;5012663;28;20026;-77
2022/03/28 09:49:54;;;;;;;1.50;1.40;;;16.10;59.70;;;;;;5021218;28;20034;-80
2022/03/28 09:52:22;;;;;;;1.35;1.25;;;16.30;59.80;;;;;;5016426;28;20018;-77
2022/03/28 09:54:56;;;;;;;5.70;2.78;;;16.50;59.10;;;;;;5018694;28;20041;-77
2022/03/28 09:57:31;;;;;;;;;;;16.50;58.40;;;;;;5009470;28;20035;-77
2022/03/28 10:00:17;;;;;;;0.65;0.65;;;16.60;58.90;;;;;;5010128;28;19909;-80
2022/03/28 10:02:43;;;;;;;0.10;0.10;;;16.50;59.40;;;;;;5013547;28;20088;-76
2022/03/28 10:05:09;;;;;;;5.28;4.88;;;16.60;59.50;;;;;;5011195;28;20675;-78
2022/03/28 10:07:36;;;;;;;0.38;0.38;;;16.70;59.80;;;;;;5023346;28;20037;-76
2022/03/28 10:10:03;;;;;;;0.10;0.10;;;16.80;59.80;;;;;;5008086;28;21385;-77
2022/03/28 10:12:29;;;;;;;0.10;0.10;;;17.00;59.90;;;;;;5018127;28;20487;-78
2022/03/28 10:15:01;;;;;;;0.10;0.10;;;17.00;59.60;;;;;;5019742;28;20034;-78
2022/03/28 10:17:28;;;;;;;0.20;0.20;;;17.10;59.80;;;;;;5018291;28;20502;-78
2022/03/28 10:19:55;;;;;;;0.35;0.35;;;17.10;59.70;;;;;;5011662;28;20034;-78
2022/03/28 10:22:32;;;;;;;3.35;2.10;;;17.20;59.70;;;;;;5015792;28;20080;-80
2022/03/28 10:25:04;;;;;;;0.10;0.10;;;17.40;59.50;;;;;;5012049;28;20033;-79
2022/03/28 10:27:32;;;;;;;0.10;0.10;;;18.30;60.10;;;;;;5017246;28;20104;-77
2022/03/28 10:30:20;;;;;;;1.30;1.30;;;17.50;59.10;;;;;;5019952;28;20483;-81
2022/03/28 10:32:46;;;;;;;0.55;0.55;;;17.60;59.00;;;;;;5014444;28;20339;-81
2022/03/28 10:35:13;;;;;;;0.30;0.30;;;17.80;58.30;;;;;;5015942;28;20032;-78
2022/03/28 10:37:43;;;;;;;0.10;0.10;;;17.90;58.50;;;;;;5020767;28;20046;-81
2022/03/28 10:40:12;;;;;;;0.65;0.65;;;18.00;58.60;;;;;;5016906;28;20032;-80
2022/03/28 10:42:44;;;;;;;0.10;0.10;;;18.10;58.20;;;;;;5015068;28;20021;-80
2022/03/28 10:45:11;;;;;;;0.85;0.85;;;18.10;57.90;;;;;;5023212;28;20037;-83
2022/03/28 10:47:41;;;;;;;0.10;0.10;;;18.20;57.40;;;;;;5014064;28;20041;-81
2022/03/28 10:50:09;;;;;;;0.73;0.73;;;18.20;57.20;;;;;;5024133;28;20028;-82
2022/03/28 10:52:35;;;;;;;0.10;0.10;;;18.20;56.90;;;;;;5025586;28;20049;-82
2022/03/28 10:55:08;;;;;;;0.50;0.50;;;18.20;55.90;;;;;;5014155;28;20057;-80
2022/03/28 10:57:34;;;;;;;;;;;18.50;56.10;;;;;;5016337;28;20038;-75
2022/03/28 11:00:08;;;;;;;1.00;1.00;;;18.60;55.30;;;;;;5005527;28;19956;-77
2022/03/28 11:02:35;;;;;;;0.10;0.10;;;18.50;55.70;;;;;;5012481;28;20029;-76
2022/03/28 11:05:12;;;;;;;0.10;0.10;;;18.60;54.20;;;;;;5016108;28;20030;-80
2022/03/28 11:07:38;;;;;;;1.40;1.30;;;18.70;53.70;;;;;;5009839;28;20034;-80
2022/03/28 11:10:07;;;;;;;1.50;1.48;;;18.90;52.90;;;;;;5016258;28;20061;-78
2022/03/28 11:12:40;;;;;;;0.20;0.20;;;19.00;51.90;;;;;;5012432;28;20438;-80
2022/03/28 11:15:21;;;;;;;2.05;1.95;;;19.00;52.00;;;;;;5011446;28;20026;-80
2022/03/28 11:17:55;;;;;;;7.72;2.45;;;19.10;50.60;;;;;;5016238;28;20018;-81
2022/03/28 11:20:23;;;;;;;0.00;0.00;;;19.20;49.70;;;;;;5016314;28;20192;-78
2022/03/28 11:23:08;;;;;;;1.95;1.85;;;19.20;49.10;;;;;;5016260;28;20049;-81
2022/03/28 11:26:03;;;;;;;2.42;1.90;;;19.30;48.60;;;;;;5022236;28;20029;-79
2022/03/28 11:28:32;;;;;;;2.75;2.55;;;19.30;49.00;;;;;;5012950;28;20042;-82
2022/03/28 11:31:06;;;;;;;1.63;1.55;;;19.40;48.30;;;;;;5016188;28;20029;-81
2022/03/28 11:33:43;;;;;;;0.13;0.13;;;19.40;48.40;;;;;;5020212;28;20050;-79
2022/03/28 11:36:14;;;;;;;1.45;1.38;;;19.50;48.30;;;;;;5018344;28;20018;-79
2022/03/28 11:38:46;;;;;;;1.73;1.38;;;19.50;48.10;;;;;;5014650;28;20057;-80
2022/03/28 11:41:13;;;;;;;0.75;0.75;;;19.50;47.80;;;;;;5020969;28;20014;-79
2022/03/28 11:43:40;;;;;;;6.68;3.47;;;19.50;47.70;;;;;;5032492;28;20095;-79
2022/03/28 11:46:17;;;;;;;0.70;0.70;;;19.50;47.70;;;;;;5016873;28;20064;-78
2022/03/28 11:48:58;;;;;;;0.10;0.10;;;19.50;47.10;;;;;;5015685;28;20440;-79
2022/03/28 11:51:30;;;;;;;5.05;3.55;;;19.50;46.80;;;;;;5022522;28;20667;-77
2022/03/28 11:54:20;;;;;;;0.13;0.13;;;19.50;46.70;;;;;;5018006;28;20275;-80
2022/03/28 11:59:39;;;;;;;0.20;0.20;;;19.70;46.90;;;;;;5034699;22;20614;-83
2022/03/28 12:02:08;;;;;;;0.20;0.20;;;19.70;46.50;;;;;;5026566;28;20025;-86
2022/03/28 12:04:44;;;;;;;0.10;0.10;;;19.70;46.50;;;;;;5029675;28;20030;-84
2022/03/28 12:07:11;;;;;;;0.10;0.10;;;19.80;46.50;;;;;;5044405;28;20022;-85
2022/03/28 12:09:42;;;;;;;2.03;1.92;;;19.90;46.50;;;;;;5030094;28;20097;-71
2022/03/28 12:12:09;;;;;;;0.20;0.20;;;19.90;46.90;;;;;;5037703;28;20027;-84
2022/03/28 12:14:38;;;;;;;0.10;0.10;;;19.80;46.70;;;;;;5028643;28;20045;-83
2022/03/28 12:17:05;;;;;;;0.55;0.55;;;19.80;47.00;;;;;;5033769;28;20116;-83
2022/03/28 12:19:31;;;;;;;0.10;0.10;;;20.00;47.30;;;;;;5042873;28;20026;-83
2022/03/28 12:22:12;;;;;;;1.45;1.45;;;20.10;47.30;;;;;;5036386;28;20025;-82
2022/03/28 12:24:52;;;;;;;3.90;3.60;;;20.20;47.70;;;;;;5034339;28;20063;-82
2022/03/28 12:27:25;;;;;;;1.13;1.13;;;20.10;48.30;;;;;;5034459;28;20109;-82
2022/03/28 12:29:52;;;;;;;0.00;0.00;;;20.10;48.70;;;;;;5045068;28;20045;-84
2022/03/28 12:32:20;;;;;;;0.20;0.20;;;20.10;48.40;;;;;;5041061;28;20022;-83
2022/03/28 12:34:46;;;;;;;0.40;0.40;;;20.20;48.60;;;;;;5040336;28;20022;-83
2022/03/28 12:37:16;;;;;;;2.55;2.38;;;20.10;49.00;;;;;;5038771;28;20018;-82
2022/03/28 12:39:44;;;;;;;0.52;0.52;;;20.00;49.30;;;;;;5041887;28;20250;-84
2022/03/28 12:42:27;;;;;;;1.20;1.20;;;20.00;49.10;;;;;;5039986;28;20033;-83
2022/03/28 12:44:54;;;;;;;0.10;0.10;;;20.10;48.80;;;;;;5042600;28;20041;-85
2022/03/28 12:47:20;;;;;;;0.20;0.20;;;20.20;49.30;;;;;;5037709;28;20083;-82
2022/03/28 12:49:47;;;;;;;0.95;0.95;;;20.40;48.70;;;;;;5047628;28;20475;-85
2022/03/28 12:52:22;;;;;;;0.15;0.15;;;20.50;48.80;;;;;;5035751;28;20087;-70
2022/03/28 12:54:52;;;;;;;1.13;1.13;;;20.90;49.10;;;;;;5019196;28;20113;-70
2022/03/28 12:57:30;;;;;;;0.17;0.17;;;21.80;47.40;;;;;;5021230;28;20022;-70
2022/03/28 12:59:56;;;;;;;0.15;0.15;;;23.00;46.20;;;;;;5021770;28;20029;-70
2022/03/28 13:02:22;;;;;;;0.25;0.25;;;23.50;45.30;;;;;;5027949;28;20094;-69